createdAt,value
2018-01-15T00:00:08.219Z,8.23
2018-01-15T00:02:38.662Z,10.23
2018-01-15T00:05:08.743Z,6.83
2018-01-15T00:07:38.440Z,9.60
2018-01-15T00:10:08.146Z,6.77
2018-01-15T00:12:37.842Z,11.23
2018-01-15T00:15:07.574Z,8.50
2018-01-15T00:17:37.273Z,11.00
2018-01-15T00:20:06.982Z,11.43
2018-01-15T00:22:36.721Z,6.23
2018-01-15T00:25:06.458Z,14.83
2018-01-15T00:27:36.150Z,25.43
2018-01-15T00:30:06.649Z,6.30
2018-01-15T00:32:36.653Z,6.13
2018-01-15T00:35:06.356Z,5.83
2018-01-15T00:37:36.053Z,6.63
2018-01-15T00:40:05.792Z,7.30
2018-01-15T00:42:36.687Z,6.07
2018-01-15T00:45:06.384Z,7.60
2018-01-15T00:47:36.089Z,6.47
2018-01-15T00:50:06.550Z,9.27
2018-01-15T00:52:36.251Z,6.43
2018-01-15T00:55:06.853Z,6.30
2018-01-15T00:57:37.366Z,8.13
2018-01-15T01:00:07.122Z,8.73
2018-01-15T01:02:37.660Z,22.27
2018-01-15T01:05:08.756Z,6.67
2018-01-15T01:07:39.253Z,10.53
2018-01-15T01:10:08.978Z,8.07
2018-01-15T01:12:38.758Z,7.90
2018-01-15T01:15:08.481Z,10.67
2018-01-15T01:17:38.157Z,9.37
2018-01-15T01:20:07.865Z,13.33
2018-01-15T01:22:37.614Z,8.33
2018-01-15T01:25:07.306Z,9.30
2018-01-15T01:27:37.017Z,7.40
2018-01-15T01:30:06.732Z,11.97
2018-01-15T01:32:37.328Z,8.03
2018-01-15T01:35:07.038Z,6.83
2018-01-15T01:37:36.741Z,14.53
2018-01-15T01:40:06.440Z,8.77
2018-01-15T01:42:36.941Z,14.60
2018-01-15T01:45:06.505Z,9.33
2018-01-15T01:47:36.214Z,19.47
2018-01-15T01:50:05.925Z,13.17
2018-01-15T01:52:35.661Z,9.70
2018-01-15T01:55:05.689Z,9.83
2018-01-15T01:57:35.473Z,10.40
2018-01-15T02:00:05.181Z,7.53
2018-01-15T02:02:34.917Z,9.60
2018-01-15T02:05:04.646Z,8.70
2018-01-15T02:07:34.428Z,12.57
2018-01-15T02:10:04.174Z,10.70
2018-01-15T02:12:34.641Z,9.20
2018-01-15T02:15:04.405Z,16.13
2018-01-15T02:17:34.918Z,12.87
2018-01-15T02:20:04.609Z,14.60
2018-01-15T02:22:34.343Z,13.70
2018-01-15T02:25:04.045Z,9.40
2018-01-15T02:27:33.776Z,10.10
2018-01-15T02:30:04.272Z,8.90
2018-01-15T02:32:34.297Z,16.13
2018-01-15T02:35:03.989Z,8.00
2018-01-15T02:37:33.702Z,11.50
2018-01-15T02:40:03.410Z,8.10
2018-01-15T02:42:33.141Z,14.80
2018-01-15T02:45:02.857Z,12.73
2018-01-15T02:47:32.587Z,11.80
2018-01-15T02:50:03.044Z,9.70
2018-01-15T02:52:34.455Z,16.27
2018-01-15T02:55:04.299Z,8.20
2018-01-15T02:57:34.006Z,8.27
2018-01-15T03:00:03.734Z,9.13
2018-01-15T03:02:33.436Z,10.37
2018-01-15T03:05:03.122Z,8.77
2018-01-15T03:07:33.585Z,8.03
2018-01-15T03:10:04.779Z,11.97
2018-01-15T03:12:35.305Z,12.57
2018-01-15T03:15:05.778Z,7.63
2018-01-15T03:17:35.489Z,9.43
2018-01-15T03:20:05.238Z,8.63
2018-01-15T03:22:35.906Z,9.43
2018-01-15T03:25:06.666Z,9.93
2018-01-15T03:27:36.348Z,17.43
2018-01-15T03:30:06.685Z,12.50
2018-01-15T03:32:36.465Z,9.87
2018-01-15T03:35:06.922Z,8.77
2018-01-15T03:37:36.638Z,13.83
2018-01-15T03:40:06.357Z,9.83
2018-01-15T03:42:36.105Z,10.10
2018-01-15T03:45:05.985Z,13.30
2018-01-15T03:47:35.653Z,7.90
2018-01-15T03:50:06.248Z,12.07
2018-01-15T03:52:36.004Z,11.97
2018-01-15T03:55:05.712Z,14.40
2018-01-15T03:57:35.969Z,11.23
2018-01-15T04:00:05.673Z,8.93
2018-01-15T04:02:36.492Z,12.50
2018-01-15T04:05:06.205Z,11.87
2018-01-15T04:07:35.929Z,16.97
2018-01-15T04:10:05.638Z,9.00
2018-01-15T04:12:35.406Z,17.60
2018-01-15T04:15:05.979Z,10.40
2018-01-15T04:17:35.762Z,17.77
2018-01-15T04:20:06.533Z,11.27
2018-01-15T04:22:36.226Z,11.20
2018-01-15T04:25:05.937Z,9.00
2018-01-15T04:27:35.655Z,12.07
2018-01-15T04:30:05.359Z,13.30
2018-01-15T04:32:35.222Z,8.67
2018-01-15T04:35:05.730Z,10.30
2018-01-15T04:37:35.670Z,9.97
2018-01-15T04:40:06.156Z,12.03
2018-01-15T04:42:35.902Z,7.87
2018-01-15T04:45:06.350Z,8.60
2018-01-15T04:47:36.813Z,10.03
2018-01-15T04:50:06.572Z,9.20
2018-01-15T04:52:37.199Z,8.63
2018-01-15T04:55:07.673Z,8.50
2018-01-15T04:57:37.377Z,10.27
2018-01-15T05:00:07.077Z,9.63
2018-01-15T05:02:36.808Z,12.00
2018-01-15T05:05:06.693Z,9.30
2018-01-15T05:07:36.398Z,9.60
2018-01-15T05:10:06.141Z,12.37
2018-01-15T05:12:36.658Z,11.93
2018-01-15T05:15:06.354Z,11.00
2018-01-15T05:17:36.384Z,8.87
2018-01-15T05:20:06.092Z,7.03
2018-01-15T05:22:36.408Z,9.47
2018-01-15T05:25:06.113Z,9.83
2018-01-15T05:27:35.814Z,9.00
2018-01-15T05:30:05.547Z,8.43
2018-01-15T05:32:36.037Z,10.80
2018-01-15T05:35:06.515Z,10.80
2018-01-15T05:37:36.217Z,9.53
2018-01-15T05:40:05.973Z,11.47
2018-01-15T05:42:35.858Z,8.47
2018-01-15T05:45:05.553Z,11.63
2018-01-15T05:47:35.271Z,18.57
2018-01-15T05:50:05.164Z,10.30
2018-01-15T05:52:34.885Z,11.13
2018-01-15T05:55:04.558Z,8.13
2018-01-15T05:57:35.113Z,8.57
2018-01-15T06:00:06.294Z,8.57
2018-01-15T06:02:36.002Z,11.47
2018-01-15T06:05:05.714Z,10.77
2018-01-15T06:07:35.461Z,9.67
2018-01-15T06:10:05.922Z,9.87
2018-01-15T06:12:36.236Z,15.27
2018-01-15T06:15:05.961Z,11.67
2018-01-15T06:17:35.657Z,8.60
2018-01-15T06:20:05.359Z,11.47
2018-01-15T06:22:35.173Z,8.67
2018-01-15T06:25:04.878Z,13.23
2018-01-15T06:27:34.804Z,8.70
2018-01-15T06:30:04.526Z,19.33
2018-01-15T06:32:34.238Z,12.23
2018-01-15T06:35:03.949Z,10.70
2018-01-15T06:37:34.440Z,13.80
2018-01-15T06:40:04.172Z,9.40
2018-01-15T06:42:34.266Z,11.93
2018-01-15T06:45:04.703Z,12.33
2018-01-15T06:47:34.716Z,10.53
2018-01-15T06:50:04.467Z,16.27
2018-01-15T06:52:34.181Z,7.60
2018-01-15T06:55:03.903Z,7.73
2018-01-15T06:57:33.613Z,8.37
2018-01-15T07:00:03.360Z,6.27
2018-01-15T07:02:33.079Z,6.80
2018-01-15T07:05:02.801Z,7.80
2018-01-15T07:07:32.479Z,13.33
2018-01-15T07:10:02.947Z,7.03
2018-01-15T07:12:32.642Z,6.60
2018-01-15T07:15:02.370Z,9.83
2018-01-15T07:17:32.059Z,7.13
2018-01-15T07:20:01.772Z,7.10
2018-01-15T07:22:32.271Z,8.70
2018-01-15T07:25:02.081Z,6.77
2018-01-15T07:27:32.552Z,8.50
2018-01-15T07:30:03.142Z,6.33
2018-01-15T07:32:33.598Z,8.10
2018-01-15T07:35:03.350Z,9.73
2018-01-15T07:37:33.034Z,10.90
2018-01-15T07:40:02.773Z,7.17
2018-01-15T07:42:32.478Z,10.40
2018-01-15T07:45:02.225Z,7.13
2018-01-15T07:47:32.713Z,10.50
2018-01-15T07:50:02.411Z,5.87
2018-01-15T07:52:32.094Z,7.43
2018-01-15T07:55:01.793Z,18.50
2018-01-15T07:57:31.610Z,6.73
2018-01-15T08:00:01.330Z,10.07
2018-01-15T08:02:31.042Z,8.97
2018-01-15T08:05:01.514Z,5.73
2018-01-15T08:07:31.496Z,16.60
2018-01-15T08:10:01.198Z,14.27
2018-01-15T08:12:30.894Z,13.20
2018-01-15T08:15:00.591Z,11.20
2018-01-15T08:17:30.310Z,7.83
2018-01-15T08:20:00.001Z,7.27
2018-01-15T08:22:31.015Z,9.07
2018-01-15T08:25:00.730Z,8.10
2018-01-15T08:27:30.713Z,10.07
2018-01-15T08:30:00.434Z,11.80
2018-01-15T08:32:30.161Z,6.80
2018-01-15T08:34:59.902Z,13.70
2018-01-15T08:37:30.349Z,14.97
2018-01-15T08:40:00.070Z,7.77
2018-01-15T08:42:29.821Z,7.60
2018-01-15T08:44:59.529Z,9.97
2018-01-15T08:47:29.284Z,11.13
2018-01-15T08:49:58.996Z,9.43
2018-01-15T08:52:28.785Z,7.53
2018-01-15T08:54:59.258Z,7.33
2018-01-15T08:57:28.978Z,8.93
2018-01-15T08:59:58.761Z,11.47
2018-01-15T09:02:28.450Z,8.87
2018-01-15T09:04:58.904Z,8.33
2018-01-15T09:07:28.907Z,8.97
2018-01-15T09:09:58.621Z,12.40
2018-01-15T09:12:28.353Z,19.33
2018-01-15T09:14:58.039Z,7.20
2018-01-15T09:17:27.729Z,7.43
2018-01-15T09:19:58.551Z,8.30
2018-01-15T09:22:29.043Z,8.40
2018-01-15T09:24:58.746Z,7.20
2018-01-15T09:27:28.471Z,9.53
2018-01-15T09:29:58.210Z,8.47
2018-01-15T09:32:28.739Z,10.53
2018-01-15T09:34:59.453Z,7.03
2018-01-15T09:37:29.178Z,8.17
2018-01-15T09:39:59.622Z,8.10
2018-01-15T09:42:30.590Z,16.40
2018-01-15T09:45:00.921Z,8.43
2018-01-15T09:47:30.659Z,18.07
2018-01-15T09:50:00.603Z,10.70
2018-01-15T09:52:31.085Z,10.60
2018-01-15T09:55:00.824Z,13.30
2018-01-15T09:57:30.867Z,12.27
2018-01-15T10:00:00.566Z,15.37
2018-01-15T10:02:31.820Z,8.03
2018-01-15T10:05:02.269Z,9.97
2018-01-15T10:07:31.967Z,8.90
2018-01-15T10:10:01.688Z,12.90
2018-01-15T10:12:31.445Z,6.73
2018-01-15T10:15:01.149Z,8.33
2018-01-15T10:17:30.846Z,14.53
2018-01-15T10:20:00.537Z,11.47
2018-01-15T10:22:30.239Z,9.30
2018-01-15T10:25:00.089Z,17.40
2018-01-15T10:27:30.024Z,14.23
2018-01-15T10:30:00.526Z,11.30
2018-01-15T10:32:30.274Z,14.47
2018-01-15T10:35:01.171Z,11.80
2018-01-15T10:37:30.897Z,10.10
2018-01-15T10:40:00.554Z,9.20
2018-01-15T10:42:30.266Z,8.80
2018-01-15T10:44:59.981Z,10.37
2018-01-15T10:47:29.962Z,15.23
2018-01-15T10:50:00.422Z,12.10
2018-01-15T10:52:30.145Z,10.13
2018-01-15T10:54:59.848Z,7.90
2018-01-15T10:57:30.334Z,9.27
2018-01-15T11:00:00.788Z,6.63
2018-01-15T11:02:30.537Z,8.17
2018-01-15T11:05:00.301Z,8.20
2018-01-15T11:07:30.009Z,6.70
2018-01-15T11:09:59.705Z,8.37
2018-01-15T11:12:30.707Z,6.70
2018-01-15T11:15:01.231Z,8.90
2018-01-15T11:17:30.939Z,8.87
2018-01-15T11:20:00.828Z,8.63
2018-01-15T11:22:31.302Z,10.33
2018-01-15T11:25:01.164Z,9.27
2018-01-15T11:27:30.857Z,12.00
2018-01-15T11:30:00.552Z,18.13
2018-01-15T11:32:31.002Z,23.67
2018-01-15T11:35:00.711Z,15.80
2018-01-15T11:37:30.418Z,19.23
2018-01-15T11:40:00.150Z,30.63
2018-01-15T11:42:29.898Z,22.23
2018-01-15T11:44:59.648Z,18.10
2018-01-15T11:47:29.363Z,26.43
2018-01-15T11:49:59.046Z,28.27
2018-01-15T11:52:29.580Z,19.03
2018-01-15T11:55:00.067Z,20.70
2018-01-15T11:57:30.449Z,27.90
2018-01-15T12:00:00.170Z,33.23
2018-01-15T12:02:29.897Z,17.10
2018-01-15T12:04:59.590Z,23.83
2018-01-15T12:07:30.474Z,25.90
2018-01-15T12:10:00.199Z,25.40
2018-01-15T12:12:32.050Z,19.40
2018-01-15T12:15:01.758Z,19.13
2018-01-15T12:17:31.469Z,13.87
2018-01-15T12:20:01.169Z,13.83
2018-01-15T12:22:30.894Z,27.90
2018-01-15T12:25:00.591Z,26.70
2018-01-15T12:27:30.322Z,16.50
2018-01-15T12:30:00.854Z,10.17
2018-01-15T12:32:31.334Z,11.27
2018-01-15T12:35:01.041Z,22.37
2018-01-15T12:37:30.857Z,19.63
2018-01-15T12:40:00.766Z,18.73
2018-01-15T12:42:30.784Z,15.47
2018-01-15T12:45:01.234Z,11.80
2018-01-15T12:47:30.949Z,26.17
2018-01-15T12:50:00.665Z,20.43
2018-01-15T12:52:31.242Z,19.90
2018-01-15T12:55:00.957Z,13.37
2018-01-15T12:57:30.710Z,18.33
2018-01-15T13:00:00.486Z,16.77
2018-01-15T13:02:30.188Z,13.23
2018-01-15T13:04:59.973Z,12.27
2018-01-15T13:07:40.913Z,14.80
2018-01-15T13:10:10.642Z,19.57
2018-01-15T13:12:41.105Z,17.70
2018-01-15T13:15:10.820Z,20.03
2018-01-15T13:17:40.525Z,15.80
2018-01-15T13:20:10.230Z,14.70
2018-01-15T13:22:39.961Z,11.97
2018-01-15T13:25:09.719Z,17.00
2018-01-15T13:27:40.173Z,13.33
2018-01-15T13:30:09.952Z,12.57
2018-01-15T13:32:40.441Z,13.73
2018-01-15T13:35:10.142Z,11.73
2018-01-15T13:37:40.750Z,14.63
2018-01-15T13:40:10.438Z,12.20
2018-01-15T13:42:41.598Z,19.57
2018-01-15T13:45:11.302Z,13.10
2018-01-15T13:47:41.062Z,17.33
2018-01-15T13:50:10.807Z,13.60
2018-01-15T13:52:41.264Z,20.90
2018-01-15T13:55:11.003Z,16.43
2018-01-15T13:57:40.701Z,19.60
2018-01-15T14:00:10.432Z,13.90
2018-01-15T14:02:40.193Z,15.83
2018-01-15T14:05:10.524Z,18.10
2018-01-15T14:07:40.294Z,21.63
2018-01-15T14:10:10.061Z,16.03
2018-01-15T14:12:39.797Z,20.43
2018-01-15T14:15:09.526Z,22.17
2018-01-15T14:17:40.356Z,19.13
2018-01-15T14:20:10.154Z,15.43
2018-01-15T14:22:40.184Z,14.77
2018-01-15T14:25:10.029Z,17.93
2018-01-15T14:27:40.580Z,16.50
2018-01-15T14:30:11.384Z,24.67
2018-01-15T14:32:41.958Z,19.30
2018-01-15T14:35:12.978Z,22.73
2018-01-15T14:37:42.814Z,17.00
2018-01-15T14:40:12.645Z,21.50
2018-01-15T14:42:42.530Z,16.77
2018-01-15T14:45:12.351Z,20.00
2018-01-15T14:47:42.914Z,17.50
2018-01-15T14:50:12.931Z,21.10
2018-01-15T14:52:42.732Z,28.30
2018-01-15T14:55:12.514Z,25.87
2018-01-15T14:57:42.275Z,16.50
2018-01-15T15:00:12.581Z,31.37
2018-01-15T15:02:42.377Z,24.27
2018-01-15T15:05:12.165Z,20.17
2018-01-15T15:07:42.552Z,33.30
2018-01-15T15:10:13.101Z,24.07
2018-01-15T15:12:43.557Z,17.53
2018-01-15T15:15:13.353Z,23.97
2018-01-15T15:17:46.264Z,24.97
2018-01-15T15:20:16.564Z,16.70
2018-01-15T15:22:51.429Z,24.13
2018-01-15T15:25:21.179Z,20.13
2018-01-15T15:27:51.780Z,19.20
2018-01-15T15:30:21.586Z,17.87
2018-01-15T15:32:52.120Z,17.37
2018-01-15T15:35:22.397Z,16.73
2018-01-15T15:37:52.157Z,20.50
2018-01-15T15:40:23.797Z,18.27
2018-01-15T15:42:53.530Z,20.53
2018-01-15T15:45:23.584Z,23.73
2018-01-15T15:47:53.371Z,18.87
2018-01-15T15:50:23.877Z,31.90
2018-01-15T15:52:53.597Z,20.93
2018-01-15T15:55:23.370Z,21.13
2018-01-15T15:57:53.116Z,36.00
2018-01-15T16:00:22.876Z,33.50
2018-01-15T16:02:52.588Z,22.33
2018-01-15T16:05:22.295Z,18.70
2018-01-15T16:07:52.037Z,23.73
2018-01-15T16:10:21.756Z,20.33
2018-01-15T16:12:51.445Z,18.63
2018-01-15T16:15:21.259Z,35.37
2018-01-15T16:17:51.406Z,20.97
2018-01-15T16:20:21.444Z,22.33
2018-01-15T16:22:59.683Z,17.07
2018-01-15T16:25:30.025Z,17.07
2018-01-15T16:27:59.700Z,19.83
2018-01-15T16:30:29.414Z,16.57
2018-01-15T16:32:59.126Z,15.20
2018-01-15T16:35:28.842Z,24.10
2018-01-15T16:37:58.552Z,17.23
2018-01-15T16:40:28.273Z,23.10
2018-01-15T16:42:57.950Z,13.33
2018-01-15T16:45:28.441Z,19.40
2018-01-15T16:47:58.186Z,14.77
2018-01-15T16:50:28.706Z,24.23
2018-01-15T16:52:59.184Z,15.13
2018-01-15T16:55:28.880Z,13.77
2018-01-15T16:57:58.571Z,14.30
2018-01-15T17:00:28.296Z,25.73
2018-01-15T17:02:58.009Z,17.50
2018-01-15T17:05:27.828Z,17.80
2018-01-15T17:07:57.646Z,28.00
2018-01-15T17:10:27.346Z,13.10
2018-01-15T17:12:57.016Z,17.33
2018-01-15T17:15:27.474Z,13.97
2018-01-15T17:17:57.153Z,17.27
2018-01-15T17:20:27.949Z,14.67
2018-01-15T17:22:57.649Z,16.23
2018-01-15T17:25:27.335Z,20.80
2018-01-15T17:27:57.044Z,23.10
2018-01-15T17:30:26.737Z,23.63
2018-01-15T17:32:57.172Z,12.90
2018-01-15T17:35:26.885Z,22.97
2018-01-15T17:37:56.555Z,33.33
2018-01-15T17:40:26.466Z,17.70
2018-01-15T17:42:56.142Z,45.03
2018-01-15T17:45:26.605Z,17.30
2018-01-15T17:47:56.326Z,13.93
2018-01-15T17:50:26.801Z,23.40
2018-01-15T17:52:57.511Z,21.80
2018-01-15T17:55:27.221Z,19.60
2018-01-15T17:57:56.950Z,20.83
2018-01-15T18:00:26.673Z,24.50
2018-01-15T18:02:56.370Z,16.80
2018-01-15T18:05:26.063Z,18.27
2018-01-15T18:07:55.758Z,19.57
2018-01-15T18:10:26.198Z,13.80
2018-01-15T18:12:55.905Z,15.80
2018-01-15T18:15:25.625Z,22.23
2018-01-15T18:17:55.282Z,18.57
2018-01-15T18:20:24.971Z,24.40
2018-01-15T18:22:54.653Z,12.80
2018-01-15T18:25:24.373Z,19.07
2018-01-15T18:27:54.358Z,19.50
2018-01-15T18:30:25.192Z,13.23
2018-01-15T18:32:54.862Z,14.30
2018-01-15T18:35:24.514Z,13.40
2018-01-15T18:37:54.202Z,11.37
2018-01-15T18:40:24.642Z,10.57
2018-01-15T18:42:55.104Z,9.63
2018-01-15T18:45:24.769Z,10.10
2018-01-15T18:47:55.230Z,14.60
2018-01-15T18:50:24.926Z,18.63
2018-01-15T18:52:54.605Z,15.10
2018-01-15T18:55:25.022Z,18.93
2018-01-15T18:57:54.709Z,11.60
2018-01-15T19:00:24.381Z,15.00
2018-01-15T19:02:54.066Z,28.07
2018-01-15T19:05:24.530Z,13.40
2018-01-15T19:07:54.228Z,19.10
2018-01-15T19:10:23.912Z,12.23
2018-01-15T19:12:54.385Z,23.03
2018-01-15T19:15:24.057Z,12.57
2018-01-15T19:17:53.737Z,15.33
2018-01-15T19:20:23.428Z,15.00
2018-01-15T19:22:53.152Z,28.73
2018-01-15T19:25:22.823Z,24.13
2018-01-15T19:27:52.696Z,27.67
2018-01-15T19:30:23.298Z,17.67
2018-01-15T19:32:53.205Z,27.30
2018-01-15T19:35:24.054Z,22.73
2018-01-15T19:37:53.923Z,19.70
2018-01-15T19:40:23.844Z,29.70
2018-01-15T19:42:53.742Z,23.03
2018-01-15T19:45:28.765Z,17.20
2018-01-15T19:48:03.693Z,34.13
2018-01-15T19:50:38.726Z,23.53
2018-01-15T19:53:23.904Z,15.97
2018-01-15T19:55:58.760Z,17.97
2018-01-15T19:58:33.647Z,23.67
2018-01-15T20:01:09.277Z,16.43
2018-01-15T20:03:44.950Z,21.43
2018-01-15T20:06:20.680Z,25.83
2018-01-15T20:08:55.551Z,19.50
2018-01-15T20:11:25.453Z,19.70
2018-01-15T20:13:56.078Z,24.97
2018-01-15T20:16:26.629Z,20.37
2018-01-15T20:18:56.355Z,27.00
2018-01-15T20:21:26.035Z,20.10
2018-01-15T20:23:55.745Z,22.70
2018-01-15T20:26:26.209Z,40.77
2018-01-15T20:28:55.913Z,28.87
2018-01-15T20:31:25.616Z,49.93
2018-01-15T20:33:55.322Z,23.20
2018-01-15T20:36:25.330Z,26.10
2018-01-15T20:38:55.012Z,20.17
2018-01-15T20:41:25.438Z,30.87
2018-01-15T20:43:55.876Z,25.17
2018-01-15T20:46:26.331Z,20.27
2018-01-15T20:48:56.119Z,19.20
2018-01-15T20:51:27.530Z,24.90
2018-01-15T20:53:57.264Z,25.60
2018-01-15T20:56:27.719Z,24.23
2018-01-15T20:58:57.404Z,22.83
2018-01-15T21:01:27.835Z,16.93
2018-01-15T21:03:58.301Z,23.40
2018-01-15T21:06:28.021Z,20.30
2018-01-15T21:08:57.722Z,24.13
2018-01-15T21:11:27.436Z,28.37
2018-01-15T21:13:57.306Z,25.07
2018-01-15T21:16:27.733Z,26.67
2018-01-15T21:18:58.202Z,20.63
2018-01-15T21:21:27.872Z,35.00
2018-01-15T21:23:57.585Z,21.33
2018-01-15T21:26:27.282Z,18.97
2018-01-15T21:28:57.750Z,32.70
2018-01-15T21:31:27.451Z,23.17
2018-01-15T21:33:57.134Z,22.43
2018-01-15T21:36:27.586Z,20.60
2018-01-15T21:38:57.305Z,17.63
2018-01-15T21:41:26.992Z,16.67
2018-01-15T21:43:56.716Z,23.80
2018-01-15T21:46:26.395Z,28.67
2018-01-15T21:48:56.850Z,28.03
2018-01-15T21:51:27.038Z,25.37
2018-01-15T21:53:57.520Z,26.47
2018-01-15T21:56:27.210Z,28.77
2018-01-15T21:58:56.929Z,26.40
2018-01-15T22:01:26.617Z,18.47
2018-01-15T22:03:56.298Z,27.90
2018-01-15T22:06:26.727Z,23.47
2018-01-15T22:08:57.205Z,15.23
2018-01-15T22:11:26.905Z,27.77
2018-01-15T22:13:56.598Z,26.23
2018-01-15T22:16:27.033Z,22.50
2018-01-15T22:18:56.718Z,21.33
2018-01-15T22:21:27.161Z,28.73
2018-01-15T22:23:56.842Z,25.40
2018-01-15T22:26:27.345Z,21.33
2018-01-15T22:28:57.004Z,36.50
2018-01-15T22:31:26.716Z,21.73
2018-01-15T22:33:56.394Z,25.30
2018-01-15T22:36:26.845Z,16.60
2018-01-15T22:38:56.530Z,16.80
2018-01-15T22:41:26.990Z,25.80
2018-01-15T22:43:56.677Z,18.20
2018-01-15T22:46:27.232Z,19.53
2018-01-15T22:48:56.938Z,21.53
2018-01-15T22:51:27.143Z,18.17
2018-01-15T22:53:57.594Z,18.03
2018-01-15T22:56:27.270Z,18.30
2018-01-15T22:58:57.777Z,19.90
2018-01-15T23:01:27.476Z,23.20
2018-01-15T23:03:57.212Z,25.20
2018-01-15T23:06:27.688Z,20.93
2018-01-15T23:08:57.400Z,22.63
2018-01-15T23:11:27.118Z,19.43
2018-01-15T23:13:56.828Z,15.93
2018-01-15T23:16:26.514Z,18.10
2018-01-15T23:18:56.237Z,27.17
2018-01-15T23:21:25.932Z,17.40
2018-01-15T23:23:55.603Z,23.40
2018-01-15T23:26:26.049Z,20.07
2018-01-15T23:28:55.796Z,19.87
2018-01-15T23:31:25.460Z,22.00
2018-01-15T23:33:56.781Z,17.53
2018-01-15T23:36:26.566Z,21.27
2018-01-15T23:38:56.258Z,15.23
2018-01-15T23:41:25.918Z,17.07
2018-01-15T23:43:55.661Z,20.67
2018-01-15T23:46:26.274Z,19.77
2018-01-15T23:48:56.715Z,31.17
2018-01-15T23:51:26.485Z,29.90
2018-01-15T23:53:56.197Z,17.60
2018-01-15T23:56:25.877Z,27.97
2018-01-15T23:58:55.542Z,24.23
